sensor_id;sensor_type;location;lat;lon;timestamp;temperature;humidity
10678;DHT22;5387;48.722;9.110;2023-04-03T00:01:41;2.90;99.90
10678;DHT22;5387;48.722;9.110;2023-04-03T00:04:08;2.90;99.90
10678;DHT22;5387;48.722;9.110;2023-04-03T00:06:35;2.90;99.90
10678;DHT22;5387;48.722;9.110;2023-04-03T00:09:02;3.00;99.90
10678;DHT22;5387;48.722;9.110;2023-04-03T00:11:29;2.90;99.90
10678;DHT22;5387;48.722;9.110;2023-04-03T00:13:55;2.90;99.90
10678;DHT22;5387;48.722;9.110;2023-04-03T00:16:24;3.00;99.90
10678;DHT22;5387;48.722;9.110;2023-04-03T00:18:51;3.00;99.90
10678;DHT22;5387;48.722;9.110;2023-04-03T00:21:17;3.00;99.90
10678;DHT22;5387;48.722;9.110;2023-04-03T00:23:44;3.00;99.90
10678;DHT22;5387;48.722;9.110;2023-04-03T00:26:11;3.00;99.90
10678;DHT22;5387;48.722;9.110;2023-04-03T00:28:38;2.90;99.90
10678;DHT22;5387;48.722;9.110;2023-04-03T00:31:04;2.80;99.90
10678;DHT22;5387;48.722;9.110;2023-04-03T00:33:33;2.90;99.90
10678;DHT22;5387;48.722;9.110;2023-04-03T00:36:04;2.80;99.90
10678;DHT22;5387;48.722;9.110;2023-04-03T00:38:31;2.80;99.90
10678;DHT22;5387;48.722;9.110;2023-04-03T00:40:58;2.80;99.90
10678;DHT22;5387;48.722;9.110;2023-04-03T00:43:25;2.80;99.90
10678;DHT22;5387;48.722;9.110;2023-04-03T00:45:54;2.80;99.90
10678;DHT22;5387;48.722;9.110;2023-04-03T00:48:24;2.80;99.90
10678;DHT22;5387;48.722;9.110;2023-04-03T00:50:54;2.80;99.90
10678;DHT22;5387;48.722;9.110;2023-04-03T00:53:24;2.70;99.90
10678;DHT22;5387;48.722;9.110;2023-04-03T00:55:52;2.70;99.90
10678;DHT22;5387;48.722;9.110;2023-04-03T00:58:23;2.70;99.90
10678;DHT22;5387;48.722;9.110;2023-04-03T01:00:55;2.60;99.90
10678;DHT22;5387;48.722;9.110;2023-04-03T01:03:24;2.60;99.90
10678;DHT22;5387;48.722;9.110;2023-04-03T01:05:53;2.60;99.90
10678;DHT22;5387;48.722;9.110;2023-04-03T01:08:20;2.60;99.90
10678;DHT22;5387;48.722;9.110;2023-04-03T01:10:47;2.50;99.90
10678;DHT22;5387;48.722;9.110;2023-04-03T01:13:23;2.60;99.90
10678;DHT22;5387;48.722;9.110;2023-04-03T01:15:50;2.70;99.90
10678;DHT22;5387;48.722;9.110;2023-04-03T01:18:17;2.70;99.90
10678;DHT22;5387;48.722;9.110;2023-04-03T01:23:57;2.60;99.90
10678;DHT22;5387;48.722;9.110;2023-04-03T01:26:25;2.60;99.90
10678;DHT22;5387;48.722;9.110;2023-04-03T01:28:54;2.60;99.90
10678;DHT22;5387;48.722;9.110;2023-04-03T01:31:24;2.60;99.90
10678;DHT22;5387;48.722;9.110;2023-04-03T01:33:53;2.70;99.90
10678;DHT22;5387;48.722;9.110;2023-04-03T01:36:22;2.70;99.90
10678;DHT22;5387;48.722;9.110;2023-04-03T01:38:51;2.70;99.90
10678;DHT22;5387;48.722;9.110;2023-04-03T01:41:18;2.60;99.90
10678;DHT22;5387;48.722;9.110;2023-04-03T01:43:46;2.60;99.90
10678;DHT22;5387;48.722;9.110;2023-04-03T01:46:13;2.60;99.90
10678;DHT22;5387;48.722;9.110;2023-04-03T01:48:40;2.60;99.90
10678;DHT22;5387;48.722;9.110;2023-04-03T01:51:08;2.60;99.90
10678;DHT22;5387;48.722;9.110;2023-04-03T01:53:35;2.50;99.90
10678;DHT22;5387;48.722;9.110;2023-04-03T01:56:03;2.40;99.90
10678;DHT22;5387;48.722;9.110;2023-04-03T01:58:30;2.40;99.90
10678;DHT22;5387;48.722;9.110;2023-04-03T02:00:57;2.50;99.90
10678;DHT22;5387;48.722;9.110;2023-04-03T02:03:24;2.50;99.90
10678;DHT22;5387;48.722;9.110;2023-04-03T02:05:50;2.50;99.90
10678;DHT22;5387;48.722;9.110;2023-04-03T02:08:19;2.50;99.90
10678;DHT22;5387;48.722;9.110;2023-04-03T02:10:47;2.50;99.90
10678;DHT22;5387;48.722;9.110;2023-04-03T02:13:14;2.50;99.90
10678;DHT22;5387;48.722;9.110;2023-04-03T02:15:41;2.60;99.90
10678;DHT22;5387;48.722;9.110;2023-04-03T02:18:08;2.60;99.90
10678;DHT22;5387;48.722;9.110;2023-04-03T02:20:35;2.60;99.90
10678;DHT22;5387;48.722;9.110;2023-04-03T02:23:02;2.50;99.90
10678;DHT22;5387;48.722;9.110;2023-04-03T02:25:32;2.50;99.90
10678;DHT22;5387;48.722;9.110;2023-04-03T02:27:59;2.60;99.90
10678;DHT22;5387;48.722;9.110;2023-04-03T02:30:25;2.50;99.90
10678;DHT22;5387;48.722;9.110;2023-04-03T02:32:52;2.60;99.90
10678;DHT22;5387;48.722;9.110;2023-04-03T02:35:20;2.50;99.90
10678;DHT22;5387;48.722;9.110;2023-04-03T02:37:46;2.50;99.90
10678;DHT22;5387;48.722;9.110;2023-04-03T02:40:13;2.50;99.90
10678;DHT22;5387;48.722;9.110;2023-04-03T02:42:42;2.60;99.90
10678;DHT22;5387;48.722;9.110;2023-04-03T02:45:09;2.50;99.90
10678;DHT22;5387;48.722;9.110;2023-04-03T02:47:36;2.50;99.90
10678;DHT22;5387;48.722;9.110;2023-04-03T02:50:03;2.50;99.90
10678;DHT22;5387;48.722;9.110;2023-04-03T02:52:30;2.40;99.90
10678;DHT22;5387;48.722;9.110;2023-04-03T02:54:57;2.40;99.90
10678;DHT22;5387;48.722;9.110;2023-04-03T02:57:24;2.50;99.90
10678;DHT22;5387;48.722;9.110;2023-04-03T02:59:52;2.60;99.90
10678;DHT22;5387;48.722;9.110;2023-04-03T03:02:18;2.50;99.90
10678;DHT22;5387;48.722;9.110;2023-04-03T03:04:45;2.60;99.90
10678;DHT22;5387;48.722;9.110;2023-04-03T03:07:12;2.80;99.90
10678;DHT22;5387;48.722;9.110;2023-04-03T03:09:39;2.60;99.90
10678;DHT22;5387;48.722;9.110;2023-04-03T03:12:06;2.70;99.90
10678;DHT22;5387;48.722;9.110;2023-04-03T03:14:32;2.70;99.90
10678;DHT22;5387;48.722;9.110;2023-04-03T03:17:00;2.50;99.90
10678;DHT22;5387;48.722;9.110;2023-04-03T03:19:27;2.50;99.90
10678;DHT22;5387;48.722;9.110;2023-04-03T03:21:54;2.50;99.90
10678;DHT22;5387;48.722;9.110;2023-04-03T03:24:22;2.60;99.90
10678;DHT22;5387;48.722;9.110;2023-04-03T03:26:49;2.60;99.90
10678;DHT22;5387;48.722;9.110;2023-04-03T03:29:15;2.50;99.90
10678;DHT22;5387;48.722;9.110;2023-04-03T03:31:42;2.60;99.90
10678;DHT22;5387;48.722;9.110;2023-04-03T03:34:10;2.70;99.90
10678;DHT22;5387;48.722;9.110;2023-04-03T03:36:37;2.70;99.90
10678;DHT22;5387;48.722;9.110;2023-04-03T03:39:04;2.70;99.90
10678;DHT22;5387;48.722;9.110;2023-04-03T03:41:31;2.80;99.90
10678;DHT22;5387;48.722;9.110;2023-04-03T03:43:57;2.80;99.90
10678;DHT22;5387;48.722;9.110;2023-04-03T03:46:24;2.70;99.90
10678;DHT22;5387;48.722;9.110;2023-04-03T03:48:51;2.70;99.90
10678;DHT22;5387;48.722;9.110;2023-04-03T03:51:19;2.70;99.90
10678;DHT22;5387;48.722;9.110;2023-04-03T03:53:46;2.80;99.90
10678;DHT22;5387;48.722;9.110;2023-04-03T03:56:13;2.70;99.90
10678;DHT22;5387;48.722;9.110;2023-04-03T03:58:40;2.80;99.90
10678;DHT22;5387;48.722;9.110;2023-04-03T04:01:06;2.70;99.90
10678;DHT22;5387;48.722;9.110;2023-04-03T04:03:34;2.60;99.90
10678;DHT22;5387;48.722;9.110;2023-04-03T04:06:01;2.60;99.90
10678;DHT22;5387;48.722;9.110;2023-04-03T04:08:29;2.60;99.90
10678;DHT22;5387;48.722;9.110;2023-04-03T04:10:55;2.70;99.90
10678;DHT22;5387;48.722;9.110;2023-04-03T04:13:23;2.70;99.90
10678;DHT22;5387;48.722;9.110;2023-04-03T04:15:50;2.60;99.90
10678;DHT22;5387;48.722;9.110;2023-04-03T04:18:17;2.60;99.90
10678;DHT22;5387;48.722;9.110;2023-04-03T04:20:45;2.50;99.90
10678;DHT22;5387;48.722;9.110;2023-04-03T04:23:12;2.60;99.90
10678;DHT22;5387;48.722;9.110;2023-04-03T04:25:40;2.60;99.90
10678;DHT22;5387;48.722;9.110;2023-04-03T04:28:07;2.70;99.90
10678;DHT22;5387;48.722;9.110;2023-04-03T04:30:34;2.60;99.90
10678;DHT22;5387;48.722;9.110;2023-04-03T04:33:00;2.70;99.90
10678;DHT22;5387;48.722;9.110;2023-04-03T04:35:27;2.90;99.90
10678;DHT22;5387;48.722;9.110;2023-04-03T04:37:54;2.80;99.90
10678;DHT22;5387;48.722;9.110;2023-04-03T04:40:21;2.80;99.90
10678;DHT22;5387;48.722;9.110;2023-04-03T04:42:49;2.90;99.90
10678;DHT22;5387;48.722;9.110;2023-04-03T04:45:16;2.80;99.90
10678;DHT22;5387;48.722;9.110;2023-04-03T04:47:43;2.90;99.90
10678;DHT22;5387;48.722;9.110;2023-04-03T04:50:11;2.90;99.90
10678;DHT22;5387;48.722;9.110;2023-04-03T04:52:38;2.90;99.90
10678;DHT22;5387;48.722;9.110;2023-04-03T04:55:06;2.90;99.90
10678;DHT22;5387;48.722;9.110;2023-04-03T04:57:32;3.00;99.90
10678;DHT22;5387;48.722;9.110;2023-04-03T05:00:02;3.00;99.90
10678;DHT22;5387;48.722;9.110;2023-04-03T05:02:29;2.90;99.90
10678;DHT22;5387;48.722;9.110;2023-04-03T05:04:56;2.90;99.90
10678;DHT22;5387;48.722;9.110;2023-04-03T05:07:24;2.80;99.90
10678;DHT22;5387;48.722;9.110;2023-04-03T05:09:51;2.80;99.90
10678;DHT22;5387;48.722;9.110;2023-04-03T05:12:18;2.80;99.90
10678;DHT22;5387;48.722;9.110;2023-04-03T05:14:44;2.90;99.90
10678;DHT22;5387;48.722;9.110;2023-04-03T05:17:12;3.00;99.90
10678;DHT22;5387;48.722;9.110;2023-04-03T05:19:39;3.00;99.90
10678;DHT22;5387;48.722;9.110;2023-04-03T05:22:06;2.90;99.90
10678;DHT22;5387;48.722;9.110;2023-04-03T05:24:33;3.00;99.90
10678;DHT22;5387;48.722;9.110;2023-04-03T05:26:59;2.90;99.90
10678;DHT22;5387;48.722;9.110;2023-04-03T05:29:26;3.00;99.90
10678;DHT22;5387;48.722;9.110;2023-04-03T05:31:53;3.10;99.90
10678;DHT22;5387;48.722;9.110;2023-04-03T05:34:22;3.30;99.90
10678;DHT22;5387;48.722;9.110;2023-04-03T05:36:48;3.20;99.90
10678;DHT22;5387;48.722;9.110;2023-04-03T05:39:15;3.20;99.90
10678;DHT22;5387;48.722;9.110;2023-04-03T05:41:42;3.20;99.90
10678;DHT22;5387;48.722;9.110;2023-04-03T05:44:09;3.20;99.90
10678;DHT22;5387;48.722;9.110;2023-04-03T05:46:35;3.20;99.90
10678;DHT22;5387;48.722;9.110;2023-04-03T05:49:03;3.20;99.90
10678;DHT22;5387;48.722;9.110;2023-04-03T05:51:34;3.20;99.90
10678;DHT22;5387;48.722;9.110;2023-04-03T05:54:06;3.20;99.90
10678;DHT22;5387;48.722;9.110;2023-04-03T05:56:35;3.10;99.90
10678;DHT22;5387;48.722;9.110;2023-04-03T05:59:02;2.90;99.90
10678;DHT22;5387;48.722;9.110;2023-04-03T06:01:29;2.80;99.90
10678;DHT22;5387;48.722;9.110;2023-04-03T06:03:56;2.70;99.90
10678;DHT22;5387;48.722;9.110;2023-04-03T06:06:24;2.60;99.90
10678;DHT22;5387;48.722;9.110;2023-04-03T06:08:52;2.50;99.90
10678;DHT22;5387;48.722;9.110;2023-04-03T06:11:18;2.60;99.90
10678;DHT22;5387;48.722;9.110;2023-04-03T06:13:46;2.70;99.90
10678;DHT22;5387;48.722;9.110;2023-04-03T06:16:15;2.70;99.90
10678;DHT22;5387;48.722;9.110;2023-04-03T06:18:43;2.60;99.90
10678;DHT22;5387;48.722;9.110;2023-04-03T06:21:10;2.60;99.90
10678;DHT22;5387;48.722;9.110;2023-04-03T06:23:37;2.70;99.90
10678;DHT22;5387;48.722;9.110;2023-04-03T06:26:05;2.80;99.90
10678;DHT22;5387;48.722;9.110;2023-04-03T06:28:32;2.90;99.90
10678;DHT22;5387;48.722;9.110;2023-04-03T06:30:59;2.80;99.90
10678;DHT22;5387;48.722;9.110;2023-04-03T06:33:26;2.70;99.90
10678;DHT22;5387;48.722;9.110;2023-04-03T06:35:57;2.70;99.90
10678;DHT22;5387;48.722;9.110;2023-04-03T06:38:24;2.90;99.90
10678;DHT22;5387;48.722;9.110;2023-04-03T06:40:51;2.80;99.90
10678;DHT22;5387;48.722;9.110;2023-04-03T06:43:20;2.80;99.90
10678;DHT22;5387;48.722;9.110;2023-04-03T06:45:47;3.00;99.90
10678;DHT22;5387;48.722;9.110;2023-04-03T06:48:14;3.00;99.90
10678;DHT22;5387;48.722;9.110;2023-04-03T06:50:41;3.10;99.90
10678;DHT22;5387;48.722;9.110;2023-04-03T06:53:07;3.30;99.90
10678;DHT22;5387;48.722;9.110;2023-04-03T06:55:35;3.50;99.90
10678;DHT22;5387;48.722;9.110;2023-04-03T06:58:02;3.30;99.90
10678;DHT22;5387;48.722;9.110;2023-04-03T07:00:31;3.40;99.90
10678;DHT22;5387;48.722;9.110;2023-04-03T07:02:58;3.60;99.90
10678;DHT22;5387;48.722;9.110;2023-04-03T07:05:25;3.50;99.90
10678;DHT22;5387;48.722;9.110;2023-04-03T07:07:52;3.60;99.90
10678;DHT22;5387;48.722;9.110;2023-04-03T07:10:19;3.40;99.90
10678;DHT22;5387;48.722;9.110;2023-04-03T07:12:46;3.50;99.90
10678;DHT22;5387;48.722;9.110;2023-04-03T07:15:12;3.90;99.90
10678;DHT22;5387;48.722;9.110;2023-04-03T07:17:41;3.60;99.90
10678;DHT22;5387;48.722;9.110;2023-04-03T07:20:08;3.50;99.90
10678;DHT22;5387;48.722;9.110;2023-04-03T07:22:36;3.50;99.90
10678;DHT22;5387;48.722;9.110;2023-04-03T07:25:03;3.50;99.90
10678;DHT22;5387;48.722;9.110;2023-04-03T07:27:32;3.60;99.90
10678;DHT22;5387;48.722;9.110;2023-04-03T07:29:59;3.70;99.90
10678;DHT22;5387;48.722;9.110;2023-04-03T07:32:26;3.70;99.90
10678;DHT22;5387;48.722;9.110;2023-04-03T07:34:54;3.80;99.90
10678;DHT22;5387;48.722;9.110;2023-04-03T07:37:21;4.00;99.90
10678;DHT22;5387;48.722;9.110;2023-04-03T07:39:48;3.80;99.90
10678;DHT22;5387;48.722;9.110;2023-04-03T07:42:15;3.80;99.90
10678;DHT22;5387;48.722;9.110;2023-04-03T07:44:42;3.90;99.90
10678;DHT22;5387;48.722;9.110;2023-04-03T07:47:08;4.20;99.90
10678;DHT22;5387;48.722;9.110;2023-04-03T07:49:35;4.40;99.90
10678;DHT22;5387;48.722;9.110;2023-04-03T07:52:06;4.30;99.90
10678;DHT22;5387;48.722;9.110;2023-04-03T07:54:34;4.40;99.90
10678;DHT22;5387;48.722;9.110;2023-04-03T07:57:01;4.60;99.90
10678;DHT22;5387;48.722;9.110;2023-04-03T07:59:28;4.80;99.90
10678;DHT22;5387;48.722;9.110;2023-04-03T08:01:55;4.70;99.90
10678;DHT22;5387;48.722;9.110;2023-04-03T08:04:22;4.90;99.90
10678;DHT22;5387;48.722;9.110;2023-04-03T08:06:49;4.80;99.90
10678;DHT22;5387;48.722;9.110;2023-04-03T08:09:18;4.90;99.90
10678;DHT22;5387;48.722;9.110;2023-04-03T08:11:45;5.20;99.90
10678;DHT22;5387;48.722;9.110;2023-04-03T08:14:13;5.30;99.90
10678;DHT22;5387;48.722;9.110;2023-04-03T08:16:43;5.00;99.90
10678;DHT22;5387;48.722;9.110;2023-04-03T08:19:10;5.00;99.90
10678;DHT22;5387;48.722;9.110;2023-04-03T08:21:39;4.80;99.90
10678;DHT22;5387;48.722;9.110;2023-04-03T08:24:07;4.50;99.90
10678;DHT22;5387;48.722;9.110;2023-04-03T08:26:35;4.50;99.90
10678;DHT22;5387;48.722;9.110;2023-04-03T08:29:02;4.80;99.90
10678;DHT22;5387;48.722;9.110;2023-04-03T08:31:29;4.70;99.90
10678;DHT22;5387;48.722;9.110;2023-04-03T08:33:57;4.90;99.90
10678;DHT22;5387;48.722;9.110;2023-04-03T08:36:26;5.00;99.90
10678;DHT22;5387;48.722;9.110;2023-04-03T08:38:54;4.80;99.90
10678;DHT22;5387;48.722;9.110;2023-04-03T08:41:28;4.70;99.90
10678;DHT22;5387;48.722;9.110;2023-04-03T08:44:04;4.70;99.90
10678;DHT22;5387;48.722;9.110;2023-04-03T08:46:43;4.70;99.90
10678;DHT22;5387;48.722;9.110;2023-04-03T08:49:18;4.70;99.90
10678;DHT22;5387;48.722;9.110;2023-04-03T08:51:48;4.60;99.90
10678;DHT22;5387;48.722;9.110;2023-04-03T08:54:24;4.70;99.90
10678;DHT22;5387;48.722;9.110;2023-04-03T08:56:52;4.70;99.90
10678;DHT22;5387;48.722;9.110;2023-04-03T08:59:26;4.60;99.90
10678;DHT22;5387;48.722;9.110;2023-04-03T09:01:54;4.80;99.90
10678;DHT22;5387;48.722;9.110;2023-04-03T09:04:22;4.80;99.90
10678;DHT22;5387;48.722;9.110;2023-04-03T09:06:52;5.10;99.90
10678;DHT22;5387;48.722;9.110;2023-04-03T09:09:29;5.00;99.90
10678;DHT22;5387;48.722;9.110;2023-04-03T09:12:03;5.00;99.90
10678;DHT22;5387;48.722;9.110;2023-04-03T09:14:39;5.00;99.90
10678;DHT22;5387;48.722;9.110;2023-04-03T09:17:14;5.10;99.90
10678;DHT22;5387;48.722;9.110;2023-04-03T09:19:49;5.10;99.90
10678;DHT22;5387;48.722;9.110;2023-04-03T09:22:20;4.90;99.90
10678;DHT22;5387;48.722;9.110;2023-04-03T09:24:55;4.90;99.90
10678;DHT22;5387;48.722;9.110;2023-04-03T09:27:23;4.80;99.90
10678;DHT22;5387;48.722;9.110;2023-04-03T09:29:54;4.70;99.90
10678;DHT22;5387;48.722;9.110;2023-04-03T09:32:26;4.90;99.90
10678;DHT22;5387;48.722;9.110;2023-04-03T09:34:55;5.20;99.90
10678;DHT22;5387;48.722;9.110;2023-04-03T09:37:38;5.00;99.90
10678;DHT22;5387;48.722;9.110;2023-04-03T09:40:12;4.90;99.90
10678;DHT22;5387;48.722;9.110;2023-04-03T09:42:55;5.20;99.90
10678;DHT22;5387;48.722;9.110;2023-04-03T09:45:25;5.80;99.90
10678;DHT22;5387;48.722;9.110;2023-04-03T09:48:06;6.10;99.90
10678;DHT22;5387;48.722;9.110;2023-04-03T09:50:34;5.90;99.90
10678;DHT22;5387;48.722;9.110;2023-04-03T09:53:05;5.80;99.90
10678;DHT22;5387;48.722;9.110;2023-04-03T09:55:42;5.60;99.90
10678;DHT22;5387;48.722;9.110;2023-04-03T09:58:25;5.70;99.90
10678;DHT22;5387;48.722;9.110;2023-04-03T10:00:57;5.50;99.90
10678;DHT22;5387;48.722;9.110;2023-04-03T10:03:27;5.70;99.90
10678;DHT22;5387;48.722;9.110;2023-04-03T10:05:55;6.00;99.90
10678;DHT22;5387;48.722;9.110;2023-04-03T10:08:27;6.10;99.90
10678;DHT22;5387;48.722;9.110;2023-04-03T10:11:14;6.00;99.90
10678;DHT22;5387;48.722;9.110;2023-04-03T10:13:55;5.60;99.90
10678;DHT22;5387;48.722;9.110;2023-04-03T10:16:29;5.50;99.90
10678;DHT22;5387;48.722;9.110;2023-04-03T10:19:11;5.40;99.90
10678;DHT22;5387;48.722;9.110;2023-04-03T10:21:44;5.30;99.90
10678;DHT22;5387;48.722;9.110;2023-04-03T10:24:17;5.30;99.90
10678;DHT22;5387;48.722;9.110;2023-04-03T10:26:55;4.90;99.90
10678;DHT22;5387;48.722;9.110;2023-04-03T10:29:35;4.70;99.90
10678;DHT22;5387;48.722;9.110;2023-04-03T10:32:15;4.90;99.90
10678;DHT22;5387;48.722;9.110;2023-04-03T10:34:47;4.90;99.90
10678;DHT22;5387;48.722;9.110;2023-04-03T10:37:21;4.70;99.90
10678;DHT22;5387;48.722;9.110;2023-04-03T10:39:54;5.20;99.90
10678;DHT22;5387;48.722;9.110;2023-04-03T10:42:28;5.40;99.90
10678;DHT22;5387;48.722;9.110;2023-04-03T10:45:20;5.90;99.90
10678;DHT22;5387;48.722;9.110;2023-04-03T10:47:56;6.00;99.90
10678;DHT22;5387;48.722;9.110;2023-04-03T10:50:31;6.30;99.90
10678;DHT22;5387;48.722;9.110;2023-04-03T10:53:04;6.10;99.90
10678;DHT22;5387;48.722;9.110;2023-04-03T10:55:36;6.10;99.90
10678;DHT22;5387;48.722;9.110;2023-04-03T10:58:04;5.70;99.90
10678;DHT22;5387;48.722;9.110;2023-04-03T11:00:36;5.50;99.90
10678;DHT22;5387;48.722;9.110;2023-04-03T11:03:11;5.60;99.90
10678;DHT22;5387;48.722;9.110;2023-04-03T11:05:42;5.70;99.90
10678;DHT22;5387;48.722;9.110;2023-04-03T11:08:16;5.60;99.90
10678;DHT22;5387;48.722;9.110;2023-04-03T11:10:46;5.10;99.90
10678;DHT22;5387;48.722;9.110;2023-04-03T11:13:18;4.80;99.90
10678;DHT22;5387;48.722;9.110;2023-04-03T11:15:48;5.20;99.90
10678;DHT22;5387;48.722;9.110;2023-04-03T11:18:20;5.10;99.90
10678;DHT22;5387;48.722;9.110;2023-04-03T11:20:56;4.90;99.90
10678;DHT22;5387;48.722;9.110;2023-04-03T11:23:25;4.60;99.90
10678;DHT22;5387;48.722;9.110;2023-04-03T11:25:56;4.60;99.90
10678;DHT22;5387;48.722;9.110;2023-04-03T11:28:26;5.00;99.90
10678;DHT22;5387;48.722;9.110;2023-04-03T11:30:57;5.20;99.90
10678;DHT22;5387;48.722;9.110;2023-04-03T11:33:40;5.20;99.90
10678;DHT22;5387;48.722;9.110;2023-04-03T11:36:10;5.30;99.90
10678;DHT22;5387;48.722;9.110;2023-04-03T11:38:43;5.60;99.90
10678;DHT22;5387;48.722;9.110;2023-04-03T11:41:11;5.40;99.90
10678;DHT22;5387;48.722;9.110;2023-04-03T11:43:41;5.40;99.90
10678;DHT22;5387;48.722;9.110;2023-04-03T11:46:09;5.20;99.90
10678;DHT22;5387;48.722;9.110;2023-04-03T11:48:52;5.60;99.90
10678;DHT22;5387;48.722;9.110;2023-04-03T11:51:52;5.40;99.90
10678;DHT22;5387;48.722;9.110;2023-04-03T11:54:47;5.80;99.90
10678;DHT22;5387;48.722;9.110;2023-04-03T12:12:38;5.90;99.90
10678;DHT22;5387;48.722;9.110;2023-04-03T12:18:40;5.40;99.90
10678;DHT22;5387;48.722;9.110;2023-04-03T12:21:07;5.50;99.90
10678;DHT22;5387;48.722;9.110;2023-04-03T12:23:35;5.80;99.90
10678;DHT22;5387;48.722;9.110;2023-04-03T12:26:19;5.90;99.90
10678;DHT22;5387;48.722;9.110;2023-04-03T12:28:48;5.90;99.90
10678;DHT22;5387;48.722;9.110;2023-04-03T12:31:16;5.90;99.90
10678;DHT22;5387;48.722;9.110;2023-04-03T12:34:04;5.30;99.90
10678;DHT22;5387;48.722;9.110;2023-04-03T12:36:39;5.30;99.90
10678;DHT22;5387;48.722;9.110;2023-04-03T12:39:44;5.40;99.90
10678;DHT22;5387;48.722;9.110;2023-04-03T12:42:26;5.60;99.90
10678;DHT22;5387;48.722;9.110;2023-04-03T12:45:01;5.70;99.90
10678;DHT22;5387;48.722;9.110;2023-04-03T12:47:31;5.70;99.90
10678;DHT22;5387;48.722;9.110;2023-04-03T12:50:02;5.80;99.90
10678;DHT22;5387;48.722;9.110;2023-04-03T12:52:37;5.70;99.90
10678;DHT22;5387;48.722;9.110;2023-04-03T12:55:13;5.80;99.90
10678;DHT22;5387;48.722;9.110;2023-04-03T12:57:42;5.50;99.90
10678;DHT22;5387;48.722;9.110;2023-04-03T13:00:27;5.50;99.90
10678;DHT22;5387;48.722;9.110;2023-04-03T13:02:54;5.40;99.90
10678;DHT22;5387;48.722;9.110;2023-04-03T13:05:22;5.70;99.90
10678;DHT22;5387;48.722;9.110;2023-04-03T13:07:52;6.10;99.90
10678;DHT22;5387;48.722;9.110;2023-04-03T13:10:22;6.30;99.90
10678;DHT22;5387;48.722;9.110;2023-04-03T13:12:52;6.30;99.90
10678;DHT22;5387;48.722;9.110;2023-04-03T13:15:21;6.10;99.90
10678;DHT22;5387;48.722;9.110;2023-04-03T13:17:48;6.30;99.90
10678;DHT22;5387;48.722;9.110;2023-04-03T13:20:23;6.40;99.90
10678;DHT22;5387;48.722;9.110;2023-04-03T13:22:55;6.20;99.90
10678;DHT22;5387;48.722;9.110;2023-04-03T13:25:25;6.10;99.90
10678;DHT22;5387;48.722;9.110;2023-04-03T13:27:54;6.20;99.90
10678;DHT22;5387;48.722;9.110;2023-04-03T13:30:25;6.20;99.90
10678;DHT22;5387;48.722;9.110;2023-04-03T13:32:53;6.40;99.90
10678;DHT22;5387;48.722;9.110;2023-04-03T13:35:36;6.60;99.90
10678;DHT22;5387;48.722;9.110;2023-04-03T13:38:07;6.80;99.90
10678;DHT22;5387;48.722;9.110;2023-04-03T13:40:48;7.10;99.90
10678;DHT22;5387;48.722;9.110;2023-04-03T13:43:21;7.30;99.90
10678;DHT22;5387;48.722;9.110;2023-04-03T13:46:03;7.10;99.90
10678;DHT22;5387;48.722;9.110;2023-04-03T13:48:36;6.70;99.90
10678;DHT22;5387;48.722;9.110;2023-04-03T13:51:05;6.60;99.90
10678;DHT22;5387;48.722;9.110;2023-04-03T13:53:40;7.00;99.90
10678;DHT22;5387;48.722;9.110;2023-04-03T13:56:13;6.80;99.90
10678;DHT22;5387;48.722;9.110;2023-04-03T13:58:55;7.20;99.90
10678;DHT22;5387;48.722;9.110;2023-04-03T14:01:24;6.80;99.90
10678;DHT22;5387;48.722;9.110;2023-04-03T14:03:54;6.70;99.90
10678;DHT22;5387;48.722;9.110;2023-04-03T14:06:21;6.40;99.90
10678;DHT22;5387;48.722;9.110;2023-04-03T14:08:49;6.50;99.90
10678;DHT22;5387;48.722;9.110;2023-04-03T14:11:18;6.60;99.90
10678;DHT22;5387;48.722;9.110;2023-04-03T14:13:46;6.50;99.90
10678;DHT22;5387;48.722;9.110;2023-04-03T14:16:16;6.50;99.90
10678;DHT22;5387;48.722;9.110;2023-04-03T14:18:44;6.60;99.90
10678;DHT22;5387;48.722;9.110;2023-04-03T14:21:13;6.50;99.90
10678;DHT22;5387;48.722;9.110;2023-04-03T14:23:40;6.40;99.90
10678;DHT22;5387;48.722;9.110;2023-04-03T14:26:11;6.30;99.90
10678;DHT22;5387;48.722;9.110;2023-04-03T14:28:38;6.40;99.90
10678;DHT22;5387;48.722;9.110;2023-04-03T14:31:05;6.10;99.90
10678;DHT22;5387;48.722;9.110;2023-04-03T14:33:34;6.00;99.90
10678;DHT22;5387;48.722;9.110;2023-04-03T14:36:01;6.00;99.90
10678;DHT22;5387;48.722;9.110;2023-04-03T14:38:30;5.90;99.90
10678;DHT22;5387;48.722;9.110;2023-04-03T14:40:57;5.80;99.90
10678;DHT22;5387;48.722;9.110;2023-04-03T14:43:24;5.80;99.90
10678;DHT22;5387;48.722;9.110;2023-04-03T14:45:51;5.90;99.90
10678;DHT22;5387;48.722;9.110;2023-04-03T14:48:20;6.00;99.90
10678;DHT22;5387;48.722;9.110;2023-04-03T14:50:50;5.90;99.90
10678;DHT22;5387;48.722;9.110;2023-04-03T14:53:18;5.90;99.90
10678;DHT22;5387;48.722;9.110;2023-04-03T14:55:50;5.90;99.90
10678;DHT22;5387;48.722;9.110;2023-04-03T14:58:19;5.80;99.90
10678;DHT22;5387;48.722;9.110;2023-04-03T15:00:47;6.00;99.90
10678;DHT22;5387;48.722;9.110;2023-04-03T15:03:15;6.00;99.90
10678;DHT22;5387;48.722;9.110;2023-04-03T15:05:44;6.10;99.90
10678;DHT22;5387;48.722;9.110;2023-04-03T15:08:21;6.10;99.90
10678;DHT22;5387;48.722;9.110;2023-04-03T15:10:49;6.20;99.90
10678;DHT22;5387;48.722;9.110;2023-04-03T15:13:18;6.10;99.90
10678;DHT22;5387;48.722;9.110;2023-04-03T15:15:45;5.70;99.90
10678;DHT22;5387;48.722;9.110;2023-04-03T15:18:16;5.80;99.90
10678;DHT22;5387;48.722;9.110;2023-04-03T15:20:44;5.80;99.90
10678;DHT22;5387;48.722;9.110;2023-04-03T15:23:12;5.60;99.90
10678;DHT22;5387;48.722;9.110;2023-04-03T15:25:43;5.70;99.90
10678;DHT22;5387;48.722;9.110;2023-04-03T15:28:17;5.80;99.90
10678;DHT22;5387;48.722;9.110;2023-04-03T15:30:45;5.90;99.90
10678;DHT22;5387;48.722;9.110;2023-04-03T15:33:12;6.10;99.90
10678;DHT22;5387;48.722;9.110;2023-04-03T15:35:39;6.10;99.90
10678;DHT22;5387;48.722;9.110;2023-04-03T15:38:05;6.10;99.90
10678;DHT22;5387;48.722;9.110;2023-04-03T15:40:32;6.30;99.90
10678;DHT22;5387;48.722;9.110;2023-04-03T15:43:01;6.40;99.90
10678;DHT22;5387;48.722;9.110;2023-04-03T15:45:29;6.40;99.90
10678;DHT22;5387;48.722;9.110;2023-04-03T15:47:57;6.30;99.90
10678;DHT22;5387;48.722;9.110;2023-04-03T15:50:24;6.40;99.90
10678;DHT22;5387;48.722;9.110;2023-04-03T15:52:51;6.60;99.90
10678;DHT22;5387;48.722;9.110;2023-04-03T15:55:20;6.20;99.90
10678;DHT22;5387;48.722;9.110;2023-04-03T15:57:47;6.50;99.90
10678;DHT22;5387;48.722;9.110;2023-04-03T16:00:15;6.10;99.90
10678;DHT22;5387;48.722;9.110;2023-04-03T16:02:43;5.80;99.90
10678;DHT22;5387;48.722;9.110;2023-04-03T16:05:10;5.50;99.90
10678;DHT22;5387;48.722;9.110;2023-04-03T16:07:38;5.40;99.90
10678;DHT22;5387;48.722;9.110;2023-04-03T16:10:06;5.30;99.90
10678;DHT22;5387;48.722;9.110;2023-04-03T16:12:33;5.20;99.90
10678;DHT22;5387;48.722;9.110;2023-04-03T16:15:00;5.30;99.90
10678;DHT22;5387;48.722;9.110;2023-04-03T16:17:28;5.50;99.90
10678;DHT22;5387;48.722;9.110;2023-04-03T16:19:56;5.70;99.90
10678;DHT22;5387;48.722;9.110;2023-04-03T16:22:24;5.60;99.90
10678;DHT22;5387;48.722;9.110;2023-04-03T16:24:51;5.70;99.90
10678;DHT22;5387;48.722;9.110;2023-04-03T16:27:18;6.00;99.90
10678;DHT22;5387;48.722;9.110;2023-04-03T16:29:45;6.20;99.90
10678;DHT22;5387;48.722;9.110;2023-04-03T16:32:12;6.30;99.90
10678;DHT22;5387;48.722;9.110;2023-04-03T16:34:40;6.30;99.90
10678;DHT22;5387;48.722;9.110;2023-04-03T16:37:07;6.20;99.90
10678;DHT22;5387;48.722;9.110;2023-04-03T16:39:34;6.10;99.90